Time;durP1;ratioP1;P1;durP2;ratioP2;P2;SDS_P1;SDS_P2;PMS_P1;PMS_P2;Temp;Humidity;BMP_temperature;BMP_pressure;BME280_temperature;BME280_humidity;BME280_pressure;Samples;Min_cycle;Max_cycle;Signal;HPM_P1;HPM_P2
2022/09/28 03:35:55;;;;;;;;;;;;;;;5.34;100.00;97668.47;4981118;28;20411;-84
2022/09/28 03:38:21;;;;;;;;;;;;;;;5.38;100.00;97673.47;4991154;28;19930;-81
2022/09/28 03:40:56;;;;;;;;;;;;;;;5.40;100.00;97682.09;4992326;28;20010;-82
2022/09/28 03:43:22;;;;;;;;;;;;;;;5.39;100.00;97674.28;4992250;28;20385;-82
2022/09/28 03:46:05;;;;;;;;;;;;;;;5.53;100.00;97674.38;4992278;28;19918;-82
2022/09/28 03:48:31;;;;;;;;;;;;;;;5.45;100.00;97671.34;4991229;28;19925;-84
2022/09/28 03:50:59;;;;;;;;;;;;;;;5.57;100.00;97669.81;4992285;28;19926;-83
2022/09/28 03:53:24;;;;;;;;;;;;;;;5.45;100.00;97669.53;4992420;28;19977;-83
2022/09/28 03:55:52;;;;;;;;;;;;;;;5.50;100.00;97669.28;4991526;28;19964;-86
2022/09/28 03:58:17;;;;;;;;;;;;;;;5.63;100.00;97672.06;4992303;28;19957;-86
2022/09/28 04:00:43;;;;;;;;;;;;;;;5.59;100.00;97676.66;4992193;28;20439;-83
2022/09/28 04:03:08;;;;;;;;;;;;;;;5.63;100.00;97680.81;4974751;28;20321;-87
2022/09/28 04:05:33;;;;;;;;;;;;;;;5.60;100.00;97686.25;4990997;28;19926;-84
2022/09/28 04:07:59;;;;;;;;;;;;;;;5.64;100.00;97682.50;4974752;28;19918;-87
2022/09/28 04:10:24;;;;;;;;;;;;;;;5.63;100.00;97683.44;4974926;28;19917;-84
2022/09/28 04:12:52;;;;;;;;;;;;;;;5.64;100.00;97687.75;4992148;28;20288;-84
2022/09/28 04:15:18;;;;;;;;;;;;;;;5.69;100.00;97687.50;4974702;28;20365;-86
2022/09/28 04:17:43;;;;;;;;;;;;;;;5.70;100.00;97691.00;4974617;28;19925;-83
2022/09/28 04:20:08;;;;;;;;;;;;;;;5.72;100.00;97692.59;4973285;28;20276;-85
2022/09/28 04:22:36;;;;;;;;;;;;;;;5.71;100.00;97690.03;4992033;28;19925;-86
2022/09/28 04:25:02;;;;;;;;;;;;;;;5.68;100.00;97691.06;4974576;28;20369;-85
2022/09/28 04:30:11;;;;;;;;;;;;;;;5.73;100.00;97690.81;4992203;28;19972;-87
2022/09/28 04:32:36;;;;;;;;;;;;;;;5.78;100.00;97691.41;4974530;28;19918;-86
2022/09/28 04:35:01;;;;;;;;;;;;;;;5.78;100.00;97691.41;4968520;28;19922;-85
2022/09/28 04:37:29;;;;;;;;;;;;;;;5.81;100.00;97694.69;4955318;28;20314;-87
2022/09/28 04:39:54;;;;;;;;;;;;;;;5.77;100.00;97697.59;4971818;28;20258;-87
2022/09/28 04:42:20;;;;;;;;;;;;;;;5.72;100.00;97697.00;4955334;28;19922;-85
2022/09/28 04:44:45;;;;;;;;;;;;;;;5.91;100.00;97688.91;4955931;28;20285;-84
2022/09/28 04:47:10;;;;;;;;;;;;;;;5.97;100.00;97685.97;4975825;28;19918;-83
2022/09/28 04:49:37;;;;;;;;;;;;;;;5.91;100.00;97695.03;4957242;28;20465;-83
2022/09/28 04:52:02;;;;;;;;;;;;;;;5.90;100.00;97685.44;4956475;28;20283;-82
2022/09/28 04:54:28;;;;;;;;;;;;;;;5.97;100.00;97692.06;4956554;28;19926;-82
2022/09/28 04:56:54;;;;;;;;;;;;;;;5.88;100.00;97704.88;4966298;28;19941;-85
2022/09/28 04:59:19;;;;;;;;;;;;;;;5.99;100.00;97703.34;4956557;28;19922;-85
2022/09/28 07:50:56;;;;;;;;;;;;;;;6.80;100.00;97861.88;5832376;23;19953;-87
2022/09/28 07:53:23;;;;;;;;;;;;;;;6.83;100.00;97864.28;4963417;28;20451;-86
2022/09/28 07:55:52;;;;;;;;;;;;;;;6.78;100.00;97863.72;4953896;28;20361;-88
2022/09/28 07:58:19;;;;;;;;;;;;;;;6.82;100.00;97867.88;4971006;28;19922;-88
2022/09/28 08:00:46;;;;;;;;;;;;;;;6.75;100.00;97875.28;4955268;28;20013;-88
2022/09/28 08:03:12;;;;;;;;;;;;;;;6.80;100.00;97877.66;4954214;28;20064;-87
2022/09/28 08:05:37;;;;;;;;;;;;;;;6.86;100.00;97872.88;4953649;28;20017;-86
2022/09/28 08:08:03;;;;;;;;;;;;;;;6.86;100.00;97872.00;4955562;28;19923;-86
2022/09/28 08:10:28;;;;;;;;;;;;;;;7.06;100.00;97879.59;4970554;28;19925;-87
2022/09/28 08:13:00;;;;;;;;;;;;;;;6.91;100.00;97877.88;4972892;28;20016;-86
2022/09/28 08:15:33;;;;;;;;;;;;;;;6.87;100.00;97882.47;4972731;28;19924;-93
2022/09/28 08:17:59;;;;;;;;;;;;;;;6.92;100.00;97884.81;4954867;28;19918;-86
2022/09/28 08:23:11;;;;;;;;;;;;;;;7.07;100.00;97881.31;4976318;28;20059;-88
2022/09/28 08:25:37;;;;;;;;;;;;;;;7.04;100.00;97881.47;4976290;28;19925;-85
2022/09/28 08:28:03;;;;;;;;;;;;;;;6.95;100.00;97884.66;4958645;28;19922;-86
2022/09/28 08:30:28;;;;;;;;;;;;;;;7.00;100.00;97882.59;4975984;28;19918;-87
2022/09/28 08:32:53;;;;;;;;;;;;;;;7.06;100.00;97890.13;4976183;28;20005;-87
2022/09/28 08:35:19;;;;;;;;;;;;;;;7.06;100.00;97878.75;4974821;28;19964;-87
2022/09/28 08:37:53;;;;;;;;;;;;;;;7.00;100.00;97893.13;4958708;28;20001;-87
2022/09/28 08:40:23;;;;;;;;;;;;;;;7.00;100.00;97892.28;4976068;28;19941;-87
2022/09/28 08:42:50;;;;;;;;;;;;;;;7.09;100.00;97900.50;4976025;28;19965;-88
2022/09/28 08:45:19;;;;;;;;;;;;;;;7.05;100.00;97899.00;4975884;28;19933;-86
2022/09/28 08:50:33;;;;;;;;;;;;;;;7.10;100.00;97904.00;4974156;28;20404;-87
2022/09/28 08:53:01;;;;;;;;;;;;;;;7.17;100.00;97907.09;4975815;28;19926;-87
2022/09/28 08:55:38;;;;;;;;;;;;;;;7.09;100.00;97904.91;4975567;28;19922;-86
2022/09/28 08:58:10;;;;;;;;;;;;;;;7.19;100.00;97905.22;4957997;28;19922;-87
2022/09/28 09:00:46;;;;;;;;;;;;;;;7.12;100.00;97914.44;4949870;28;19921;-89
2022/09/28 09:03:20;;;;;;;;;;;;;;;7.22;100.00;97905.03;4965411;28;20255;-87
2022/09/28 09:05:59;;;;;;;;;;;;;;;7.19;100.00;97910.50;4973998;28;19928;-86
2022/09/28 09:08:24;;;;;;;;;;;;;;;7.22;100.00;97905.03;4973451;28;19926;-88
2022/09/28 09:10:51;;;;;;;;;;;;;;;7.15;100.00;97903.69;4974057;28;19929;-89
2022/09/28 09:13:27;;;;;;;;;;;;;;;7.16;100.00;97894.88;4974842;28;19937;-87
2022/09/28 09:16:02;;;;;;;;;;;;;;;7.19;100.00;97899.94;4957240;28;19926;-87
2022/09/28 09:18:41;;;;;;;;;;;;;;;7.21;100.00;97893.66;4957217;28;19923;-87
2022/09/28 09:21:27;;;;;;;;;;;;;;;7.22;100.00;97894.50;4974215;28;19965;-86
2022/09/28 09:24:00;;;;;;;;;;;;;;;7.22;100.00;97900.59;4973551;28;20372;-87
2022/09/28 09:26:37;;;;;;;;;;;;;;;8.96;100.00;97909.22;4957552;28;19918;-88
2022/09/28 09:29:15;;;;;;;;;;;;;;;12.66;100.00;97903.38;4958835;28;19918;-89
2022/09/28 09:31:56;;;;;;;;;;;;;;;9.70;100.00;97910.38;4975218;28;19922;-86
2022/09/28 09:34:25;;;;;;;;;;;;;;;8.29;100.00;97905.53;4957672;28;20361;-86
2022/09/28 09:37:08;;;;;;;;;;;;;;;7.91;100.00;97906.13;4973675;28;19926;-86
2022/09/28 09:39:45;;;;;;;;;;;;;;;7.73;100.00;97909.91;4974754;28;19925;-86
2022/09/28 09:42:23;;;;;;;;;;;;;;;7.64;100.00;97916.56;4964927;28;19930;-85
2022/09/28 09:44:55;;;;;;;;;;;;;;;7.50;100.00;97914.78;4974330;28;19981;-86
2022/09/28 09:47:41;;;;;;;;;;;;;;;7.28;100.00;97910.78;4957136;28;20296;-90
2022/09/28 09:50:07;;;;;;;;;;;;;;;7.11;100.00;97920.63;4955010;28;20005;-86
2022/09/28 09:52:38;;;;;;;;;;;;;;;6.67;100.00;97920.47;4955874;28;19926;-86
2022/09/28 09:55:17;;;;;;;;;;;;;;;6.36;100.00;97922.16;4970858;28;19925;-89
2022/09/28 09:57:47;;;;;;;;;;;;;;;5.98;100.00;97911.97;4957271;28;19918;-85
2022/09/28 10:00:14;;;;;;;;;;;;;;;5.94;100.00;97915.66;4952401;28;19933;-87
2022/09/28 10:02:41;;;;;;;;;;;;;;;6.10;100.00;97918.34;4956348;28;20277;-86
2022/09/28 10:05:06;;;;;;;;;;;;;;;6.28;100.00;97916.47;4972451;28;19926;-88
2022/09/28 10:07:54;;;;;;;;;;;;;;;6.51;100.00;97914.34;4974259;28;19922;-85
2022/09/28 10:10:26;;;;;;;;;;;;;;;6.67;100.00;97909.06;4965391;28;19941;-86
2022/09/28 10:12:52;;;;;;;;;;;;;;;6.93;100.00;97918.13;4974362;28;19925;-86
2022/09/28 10:15:25;;;;;;;;;;;;;;;7.23;100.00;97919.91;4973410;28;19922;-86
2022/09/28 10:17:51;;;;;;;;;;;;;;;7.51;100.00;97911.19;4973799;28;20440;-86
2022/09/28 10:20:18;;;;;;;;;;;;;;;7.65;100.00;97918.28;4972763;28;19976;-88
2022/09/28 10:22:44;;;;;;;;;;;;;;;7.81;100.00;97924.31;4973995;28;19945;-86
2022/09/28 10:25:10;;;;;;;;;;;;;;;7.96;100.00;97924.31;4974421;28;19922;-89
2022/09/28 10:27:43;;;;;;;;;;;;;;;8.09;100.00;97913.84;4956561;28;19933;-87
2022/09/28 10:30:08;;;;;;;;;;;;;;;8.15;100.00;97916.97;4974201;28;19918;-86
2022/09/28 10:32:37;;;;;;;;;;;;;;;8.18;100.00;97910.63;4974187;28;19926;-86
2022/09/28 10:35:18;;;;;;;;;;;;;;;8.15;100.00;97906.41;4972345;28;19941;-86
2022/09/28 10:37:51;;;;;;;;;;;;;;;8.22;100.00;97911.28;4973761;28;19918;-86
2022/09/28 10:40:39;;;;;;;;;;;;;;;8.31;100.00;97913.34;4973737;28;19976;-86
2022/09/28 10:43:17;;;;;;;;;;;;;;;8.35;100.00;97913.06;4964697;28;19922;-86
2022/09/28 10:45:42;;;;;;;;;;;;;;;8.42;100.00;97913.50;4963918;28;19926;-86
2022/09/28 10:48:16;;;;;;;;;;;;;;;8.42;100.00;97908.22;4973314;28;19918;-86
2022/09/28 10:50:42;;;;;;;;;;;;;;;8.49;100.00;97917.50;4962321;28;19922;-86
2022/09/28 10:53:19;;;;;;;;;;;;;;;8.61;100.00;97918.47;4956280;28;20365;-86
2022/09/28 10:55:55;;;;;;;;;;;;;;;8.68;100.00;97918.94;4973346;28;19980;-88
2022/09/28 10:58:25;;;;;;;;;;;;;;;8.67;100.00;97918.09;4973710;28;19918;-86
2022/09/28 11:00:51;;;;;;;;;;;;;;;8.69;100.00;97918.84;4972634;28;20353;-86
2022/09/28 11:03:22;;;;;;;;;;;;;;;8.79;100.00;97913.81;4973545;28;19985;-87
2022/09/28 11:05:59;;;;;;;;;;;;;;;8.75;100.00;97917.59;4972135;28;19988;-86
2022/09/28 11:08:29;;;;;;;;;;;;;;;8.80;100.00;97914.66;4973044;28;19969;-86
2022/09/28 11:11:07;;;;;;;;;;;;;;;8.82;100.00;97910.97;4972930;28;19926;-86
2022/09/28 11:14:05;;;;;;;;;;;;;;;8.82;100.00;97910.97;4956017;28;19926;-87
2022/09/28 11:16:31;;;;;;;;;;;;;;;8.84;100.00;97910.84;4924168;28;19918;-86
2022/09/28 11:19:01;;;;;;;;;;;;;;;8.88;100.00;97907.91;4973223;28;19918;-86
2022/09/28 11:21:31;;;;;;;;;;;;;;;8.91;100.00;97906.88;4962256;28;20365;-86
2022/09/28 11:24:00;;;;;;;;;;;;;;;8.93;100.00;97902.34;4963548;28;20316;-86
2022/09/28 11:26:26;;;;;;;;;;;;;;;8.94;100.00;97892.63;4955376;28;19922;-86
2022/09/28 11:28:52;;;;;;;;;;;;;;;8.97;100.00;97895.91;4955718;28;19918;-86
2022/09/28 11:31:24;;;;;;;;;;;;;;;9.00;100.00;97903.63;4955814;28;19972;-86
2022/09/28 11:33:49;;;;;;;;;;;;;;;9.06;100.00;97899.72;4955722;28;19918;-86
2022/09/28 11:36:17;;;;;;;;;;;;;;;9.05;100.00;97903.34;4954373;28;19929;-86
2022/09/28 11:39:03;;;;;;;;;;;;;;;9.08;100.00;97908.41;4971761;28;20769;-86
2022/09/28 11:41:31;;;;;;;;;;;;;;;9.12;100.00;97907.25;4955334;28;19918;-85
2022/09/28 11:43:56;;;;;;;;;;;;;;;9.14;100.00;97907.13;4955222;28;19922;-86
2022/09/28 11:46:32;;;;;;;;;;;;;;;9.15;100.00;97907.03;4971723;28;19922;-86
2022/09/28 11:49:02;;;;;;;;;;;;;;;9.23;100.00;97899.44;4955359;28;20010;-86
2022/09/28 11:51:33;;;;;;;;;;;;;;;9.28;100.00;97896.50;4961893;28;20409;-86
2022/09/28 11:54:12;;;;;;;;;;;;;;;9.31;100.00;97898.94;4964759;28;19918;-85
2022/09/28 11:56:39;;;;;;;;;;;;;;;9.35;100.00;97896.91;4959486;28;20333;-86
2022/09/28 11:59:10;;;;;;;;;;;;;;;9.33;100.00;97899.66;4959338;28;19925;-85
2022/09/28 12:01:44;;;;;;;;;;;;;;;9.33;100.00;97891.72;4959388;28;19965;-86
2022/09/28 12:04:12;;;;;;;;;;;;;;;9.36;100.00;97899.44;4959029;28;19919;-85
2022/09/28 12:06:45;;;;;;;;;;;;;;;9.41;100.00;97893.84;4974771;28;19922;-86
2022/09/28 12:09:18;;;;;;;;;;;;;;;9.35;100.00;97896.91;4959448;28;20042;-87
2022/09/28 12:11:46;;;;;;;;;;;;;;;9.44;100.00;97901.59;4976399;28;20279;-86
2022/09/28 12:14:20;;;;;;;;;;;;;;;9.43;100.00;97900.75;4959165;28;19922;-88
2022/09/28 12:16:50;;;;;;;;;;;;;;;9.46;100.00;97897.03;4959111;28;19918;-86
2022/09/28 12:19:26;;;;;;;;;;;;;;;9.46;100.00;97899.66;4976549;28;20285;-87
2022/09/28 12:22:12;;;;;;;;;;;;;;;9.54;100.00;97892.09;4965875;28;20517;-95
2022/09/28 12:24:47;;;;;;;;;;;;;;;9.52;100.00;97896.63;4954663;28;20420;-89
2022/09/28 12:27:15;;;;;;;;;;;;;;;9.60;100.00;97890.81;4972688;28;19929;-86
2022/09/28 12:29:46;;;;;;;;;;;;;;;9.54;100.00;97899.16;4975851;28;19929;-85
2022/09/28 12:32:21;;;;;;;;;;;;;;;9.58;100.00;97893.56;4976282;28;19925;-86
2022/09/28 12:34:46;;;;;;;;;;;;;;;9.58;100.00;97887.44;4975952;28;19922;-85
2022/09/28 12:37:21;;;;;;;;;;;;;;;9.63;100.00;97891.44;4974997;28;19925;-85
2022/09/28 12:39:53;;;;;;;;;;;;;;;9.61;100.00;97885.41;4975887;28;20433;-87
2022/09/28 12:42:43;;;;;;;;;;;;;;;9.67;100.00;97901.78;4958933;28;19919;-86
2022/09/28 12:45:18;;;;;;;;;;;;;;;9.66;100.00;97900.13;4958719;28;19918;-86
2022/09/28 12:47:59;;;;;;;;;;;;;;;9.66;100.00;97897.47;4975620;28;19930;-88
2022/09/28 12:50:48;;;;;;;;;;;;;;;9.73;100.00;97904.03;4949152;28;19922;-85
2022/09/28 12:53:20;;;;;;;;;;;;;;;9.66;100.00;97900.13;4975461;28;19921;-88
2022/09/28 12:55:45;;;;;;;;;;;;;;;9.69;100.00;97905.19;4965843;28;19925;-85
2022/09/28 12:58:24;;;;;;;;;;;;;;;9.72;100.00;97895.25;4975970;28;19922;-85
2022/09/28 13:00:58;;;;;;;;;;;;;;;9.70;100.00;97896.28;4975595;28;19918;-86
2022/09/28 13:03:41;;;;;;;;;;;;;;;9.74;100.00;97895.97;4966071;28;19925;-86
2022/09/28 13:06:24;;;;;;;;;;;;;;;9.75;100.00;97899.50;4973272;28;19918;-86
2022/09/28 13:09:04;;;;;;;;;;;;;;;9.75;100.00;97891.56;4975380;28;19918;-86
2022/09/28 13:11:38;;;;;;;;;;;;;;;9.71;100.00;97893.53;4975455;28;19924;-87
2022/09/28 13:14:22;;;;;;;;;;;;;;;9.76;100.00;97885.28;4957606;28;19919;-87
2022/09/28 13:17:04;;;;;;;;;;;;;;;9.79;100.00;97891.22;4975395;28;19918;-87
2022/09/28 13:19:43;;;;;;;;;;;;;;;9.79;100.00;97885.09;4975317;28;20369;-86
2022/09/28 13:22:08;;;;;;;;;;;;;;;9.86;100.00;97883.72;4956750;28;20362;-85
2022/09/28 13:24:36;;;;;;;;;;;;;;;9.86;100.00;97885.50;4975183;28;19932;-85
2022/09/28 13:27:04;;;;;;;;;;;;;;;9.84;100.00;97884.75;4958042;28;19973;-86
2022/09/28 13:29:30;;;;;;;;;;;;;;;9.90;100.00;97874.59;4957980;28;19918;-85
2022/09/28 13:32:02;;;;;;;;;;;;;;;9.94;100.00;97877.84;4957712;28;20025;-89
2022/09/28 13:34:28;;;;;;;;;;;;;;;9.87;100.00;97872.16;4962781;28;19918;-86
2022/09/28 13:37:07;;;;;;;;;;;;;;;9.85;100.00;97873.25;4973162;28;19918;-85
2022/09/28 13:39:45;;;;;;;;;;;;;;;9.87;100.00;97872.16;4956196;28;20366;-85
2022/09/28 13:42:25;;;;;;;;;;;;;;;9.93;100.00;97873.53;4975035;28;20365;-87
2022/09/28 13:44:59;;;;;;;;;;;;;;;9.91;100.00;97873.66;4974593;28;20005;-86
2022/09/28 13:47:28;;;;;;;;;;;;;;;9.89;100.00;97872.91;4956850;28;20390;-86
2022/09/28 13:49:56;;;;;;;;;;;;;;;9.93;100.00;97879.66;4972892;28;19918;-90
2022/09/28 13:52:21;;;;;;;;;;;;;;;9.94;100.00;97877.84;4964154;28;19922;-87
2022/09/28 13:54:53;;;;;;;;;;;;;;;9.99;100.00;97870.47;4973458;28;19922;-87
2022/09/28 13:57:27;;;;;;;;;;;;;;;9.99;100.00;97876.59;4964963;28;19997;-87
2022/09/28 14:00:19;;;;;;;;;;;;;;;10.00;100.00;97878.31;4956922;28;19918;-87
2022/09/28 14:02:46;;;;;;;;;;;;;;;9.98;100.00;97884.63;4949074;28;20009;-86
2022/09/28 14:05:30;;;;;;;;;;;;;;;9.98;100.00;97877.53;4973484;28;19973;-86
2022/09/28 14:07:57;;;;;;;;;;;;;;;9.98;100.00;97882.00;4957131;28;20001;-87
2022/09/28 14:10:42;;;;;;;;;;;;;;;9.99;100.00;97881.06;4974470;28;19925;-87
2022/09/28 14:13:07;;;;;;;;;;;;;;;10.04;100.00;97875.44;4956977;28;19925;-87
2022/09/28 14:15:32;;;;;;;;;;;;;;;10.04;100.00;97886.03;4974211;28;19918;-87
2022/09/28 14:18:11;;;;;;;;;;;;;;;10.07;100.00;97872.53;4956755;28;19925;-86
2022/09/28 14:20:36;;;;;;;;;;;;;;;10.11;100.00;97879.31;4956286;28;19922;-88
2022/09/28 14:23:13;;;;;;;;;;;;;;;10.06;100.00;97877.00;4948577;28;20306;-87
2022/09/28 14:25:45;;;;;;;;;;;;;;;10.16;100.00;97885.13;4963646;28;20325;-87
2022/09/28 14:28:29;;;;;;;;;;;;;;;10.09;100.00;97876.78;4964380;28;20437;-91
2022/09/28 14:30:56;;;;;;;;;;;;;;;10.12;100.00;97871.28;4974384;28;20273;-87
2022/09/28 14:33:32;;;;;;;;;;;;;;;10.11;100.00;97881.97;4956978;28;19926;-92
2022/09/28 14:36:03;;;;;;;;;;;;;;;10.18;100.00;97880.59;4964108;28;19957;-88
2022/09/28 14:41:16;;;;;;;;;;;;;;;10.15;100.00;97871.06;4974585;28;19941;-86
2022/09/28 14:43:50;;;;;;;;;;;;;;;10.16;100.00;97871.91;4973870;28;20274;-87
2022/09/28 14:46:21;;;;;;;;;;;;;;;10.17;100.00;97873.59;4956219;28;20278;-87
2022/09/28 14:49:02;;;;;;;;;;;;;;;10.21;100.00;97874.22;4972497;28;19919;-87
2022/09/28 14:51:36;;;;;;;;;;;;;;;10.18;100.00;97870.00;4972470;28;20009;-88
2022/09/28 14:54:12;;;;;;;;;;;;;;;10.22;100.00;97879.41;4973270;28;19926;-88
2022/09/28 14:57:00;;;;;;;;;;;;;;;10.26;100.00;97877.38;4972768;28;19924;-87
2022/09/28 14:59:33;;;;;;;;;;;;;;;10.28;100.00;97881.59;4972877;28;20004;-86
2022/09/28 15:02:13;;;;;;;;;;;;;;;10.30;100.00;97878.84;4956145;28;19984;-87
2022/09/28 15:04:42;;;;;;;;;;;;;;;10.32;100.00;97879.56;4972648;28;19919;-87
2022/09/28 15:07:17;;;;;;;;;;;;;;;10.31;100.00;97878.75;4972479;28;19922;-90
2022/09/28 15:09:42;;;;;;;;;;;;;;;10.35;100.00;97887.34;4973040;28;19922;-87
2022/09/28 15:12:14;;;;;;;;;;;;;;;10.32;100.00;97884.88;4973306;28;19929;-87
2022/09/28 15:15:03;;;;;;;;;;;;;;;10.34;100.00;97878.56;4972843;28;19922;-87
2022/09/28 15:17:30;;;;;;;;;;;;;;;10.39;100.00;97883.53;4973343;28;19922;-88
2022/09/28 15:19:59;;;;;;;;;;;;;;;10.41;100.00;97886.06;4954693;28;19922;-87
2022/09/28 15:22:25;;;;;;;;;;;;;;;10.40;100.00;97879.91;4972120;28;20370;-87
2022/09/28 15:24:58;;;;;;;;;;;;;;;10.37;100.00;97888.09;4970119;28;19965;-89
2022/09/28 15:27:24;;;;;;;;;;;;;;;10.40;100.00;97884.34;4953189;28;19922;-89
2022/09/28 15:29:56;;;;;;;;;;;;;;;10.43;100.00;97884.97;4971920;28;19924;-88
2022/09/28 15:32:22;;;;;;;;;;;;;;;10.41;100.00;97880.78;4971474;28;19965;-86
2022/09/28 15:34:57;;;;;;;;;;;;;;;10.46;100.00;97886.56;4972783;28;19970;-94
2022/09/28 15:37:27;;;;;;;;;;;;;;;10.43;100.00;97884.97;4954097;28;19922;-87
2022/09/28 15:39:53;;;;;;;;;;;;;;;10.46;100.00;97889.22;4970201;28;19922;-87
2022/09/28 15:42:21;;;;;;;;;;;;;;;10.49;100.00;97887.19;4971333;28;19926;-86
2022/09/28 15:45:06;;;;;;;;;;;;;;;10.51;100.00;97884.41;4952068;28;19922;-86
2022/09/28 15:47:31;;;;;;;;;;;;;;;10.45;100.00;97888.38;4971667;28;19939;-87
2022/09/28 15:50:00;;;;;;;;;;;;;;;10.51;100.00;97890.59;4970952;28;20373;-87
2022/09/28 15:52:45;;;;;;;;;;;;;;;10.47;100.00;97891.75;4972185;28;19926;-86
2022/09/28 15:55:25;;;;;;;;;;;;;;;10.50;100.00;97885.41;4972124;28;19950;-87
2022/09/28 15:58:03;;;;;;;;;;;;;;;10.54;100.00;97885.03;4971361;28;19923;-86
2022/09/28 16:00:30;;;;;;;;;;;;;;;10.57;100.00;97893.75;4963733;28;19926;-87
2022/09/28 16:03:15;;;;;;;;;;;;;;;10.52;100.00;97889.59;4953747;28;19926;-87
2022/09/28 16:05:45;;;;;;;;;;;;;;;10.56;100.00;97900.81;4969461;28;19930;-87
2022/09/28 16:08:23;;;;;;;;;;;;;;;10.53;100.00;97893.13;4972092;28;20050;-87
2022/09/28 16:11:09;;;;;;;;;;;;;;;10.54;100.00;97892.97;4954419;28;20336;-87
2022/09/28 16:13:35;;;;;;;;;;;;;;;10.59;100.00;97892.66;4953111;28;20013;-86
2022/09/28 16:16:01;;;;;;;;;;;;;;;10.60;100.00;97890.88;4971707;28;20325;-86
2022/09/28 16:18:28;;;;;;;;;;;;;;;10.59;100.00;97895.28;4972750;28;19918;-87
2022/09/28 16:20:55;;;;;;;;;;;;;;;10.64;100.00;97887.03;4971450;28;19965;-87
2022/09/28 16:23:22;;;;;;;;;;;;;;;10.60;100.00;97883.75;4971222;28;19985;-86
2022/09/28 16:25:57;;;;;;;;;;;;;;;10.64;100.00;97890.53;4972064;28;20289;-87
2022/09/28 16:28:47;;;;;;;;;;;;;;;10.67;100.00;97900.91;4971703;28;19929;-89
2022/09/28 16:32:04;;;;;;;;;;;;;;;10.62;100.00;97896.88;4970831;28;20382;-87
2022/09/28 16:34:30;;;;;;;;;;;;;;;10.65;100.00;97905.44;4969871;28;19933;-90
2022/09/28 16:36:56;;;;;;;;;;;;;;;10.94;100.00;97901.63;4968069;28;20306;-87
2022/09/28 16:39:24;;;;;;;;;;;;;;;9.02;100.00;97909.66;4970398;28;19926;-88
2022/09/28 16:41:54;;;;;;;;;;;;;;;7.89;100.00;97912.47;4957369;28;19926;-89
2022/09/28 16:44:30;;;;;;;;;;;;;;;7.33;100.00;97915.78;4957008;28;19926;-89
2022/09/28 16:46:56;;;;;;;;;;;;;;;6.99;100.00;97924.81;4975045;28;19922;-88
2022/09/28 16:49:22;;;;;;;;;;;;;;;6.73;100.00;97924.53;4958524;28;19922;-88
2022/09/28 16:51:48;;;;;;;;;;;;;;;6.59;100.00;97933.22;4963596;28;20033;-88
2022/09/28 16:56:59;;;;;;;;;;;;;;;6.32;100.00;97936.44;4973875;28;20025;-88
2022/09/28 16:59:24;;;;;;;;;;;;;;;6.26;100.00;97935.94;4955387;28;20378;-89
2022/09/28 17:01:49;;;;;;;;;;;;;;;6.17;100.00;97945.16;4974889;28;19922;-88
2022/09/28 17:04:15;;;;;;;;;;;;;;;6.05;100.00;97944.03;4956576;28;19922;-89
2022/09/28 17:06:42;;;;;;;;;;;;;;;5.95;100.00;97945.41;4957206;28;19926;-89
2022/09/28 17:09:10;;;;;;;;;;;;;;;5.90;100.00;97945.66;4957518;28;19922;-89
2022/09/28 17:11:36;;;;;;;;;;;;;;;5.82;100.00;97948.72;4967206;28;20373;-88
2022/09/28 17:14:08;;;;;;;;;;;;;;;5.74;100.00;97948.25;4957071;28;19933;-88
2022/09/28 17:16:35;;;;;;;;;;;;;;;5.62;100.00;97947.13;4972964;28;19953;-89
2022/09/28 17:19:00;;;;;;;;;;;;;;;5.62;100.00;97954.16;4975310;28;19926;-89
2022/09/28 17:21:26;;;;;;;;;;;;;;;5.52;100.00;97959.06;4972115;28;19929;-87
2022/09/28 17:23:51;;;;;;;;;;;;;;;5.44;100.00;97958.56;4972549;28;19926;-90
2022/09/28 17:26:29;;;;;;;;;;;;;;;5.37;100.00;97963.28;4974296;28;20354;-88
2022/09/28 17:28:57;;;;;;;;;;;;;;;5.38;100.00;97956.28;4957666;28;19922;-88
2022/09/28 17:31:23;;;;;;;;;;;;;;;5.27;100.00;97962.91;4974488;28;20404;-88
2022/09/28 17:33:48;;;;;;;;;;;;;;;5.22;100.00;97964.91;4957372;28;19945;-87
2022/09/28 17:36:16;;;;;;;;;;;;;;;5.13;100.00;97965.38;4956891;28;20285;-91
2022/09/28 17:38:41;;;;;;;;;;;;;;;5.13;100.00;97968.00;4956528;28;19929;-90
2022/09/28 17:41:11;;;;;;;;;;;;;;;5.07;100.00;97963.91;4956085;28;19922;-90
2022/09/28 17:43:36;;;;;;;;;;;;;;;5.04;100.00;97963.19;4957597;28;19945;-88
2022/09/28 17:46:02;;;;;;;;;;;;;;;4.93;100.00;97961.13;4955989;28;19926;-90
2022/09/28 17:48:27;;;;;;;;;;;;;;;4.83;100.00;97967.72;4974815;28;19918;-87
2022/09/28 17:50:52;;;;;;;;;;;;;;;4.85;100.00;97966.75;4971873;28;20285;-86
2022/09/28 17:53:18;;;;;;;;;;;;;;;4.76;100.00;97972.44;4973977;28;20008;-86
2022/09/28 17:55:43;;;;;;;;;;;;;;;4.70;100.00;97964.84;4974695;28;19929;-86
2022/09/28 17:58:11;;;;;;;;;;;;;;;4.76;100.00;97972.44;4974639;28;19925;-87
2022/09/28 18:00:37;;;;;;;;;;;;;;;4.64;100.00;97971.25;4974712;28;20014;-87
2022/09/28 18:03:02;;;;;;;;;;;;;;;4.57;100.00;97966.38;4974135;28;19961;-86
2022/09/28 18:05:29;;;;;;;;;;;;;;;4.58;100.00;97968.91;4971816;28;19926;-86
2022/09/28 18:07:56;;;;;;;;;;;;;;;4.48;100.00;97971.13;4973365;28;20444;-88
2022/09/28 18:10:22;;;;;;;;;;;;;;;4.43;100.00;97972.25;4972967;28;19947;-94
2022/09/28 18:12:48;;;;;;;;;;;;;;;4.33;100.00;97982.31;4974448;28;20468;-87
2022/09/28 18:15:14;;;;;;;;;;;;;;;4.37;100.00;97983.88;4974406;28;19918;-87
2022/09/28 18:17:39;;;;;;;;;;;;;;;4.25;100.00;97989.69;4972852;28;19922;-87
2022/09/28 18:20:06;;;;;;;;;;;;;;;4.21;100.00;97993.38;4972386;28;19926;-87
2022/09/28 18:22:31;;;;;;;;;;;;;;;4.16;100.00;97985.72;4956401;28;19969;-87
2022/09/28 18:24:56;;;;;;;;;;;;;;;4.24;100.00;97993.22;4974202;28;19921;-87
2022/09/28 18:27:22;;;;;;;;;;;;;;;4.05;100.00;97999.28;4970869;28;19933;-87
2022/09/28 18:29:47;;;;;;;;;;;;;;;4.13;100.00;98005.06;4972667;28;19922;-87
2022/09/28 18:32:12;;;;;;;;;;;;;;;4.15;100.00;98005.00;4939312;28;20286;-87
2022/09/28 18:34:37;;;;;;;;;;;;;;;4.09;100.00;98008.72;4974170;28;19924;-87
2022/09/28 18:37:04;;;;;;;;;;;;;;;4.21;100.00;98002.06;4952537;28;20362;-88
2022/09/28 18:39:29;;;;;;;;;;;;;;;4.07;100.00;98005.34;4955532;28;19960;-87
2022/09/28 18:41:55;;;;;;;;;;;;;;;4.08;100.00;98003.56;4963222;28;20445;-87
2022/09/28 18:44:20;;;;;;;;;;;;;;;3.98;100.00;98013.59;4971687;28;19972;-87
2022/09/28 18:46:45;;;;;;;;;;;;;;;3.96;100.00;98005.81;4953024;28;19925;-88
2022/09/28 18:49:11;;;;;;;;;;;;;;;3.98;100.00;98011.81;4972844;28;19926;-87
2022/09/28 18:51:36;;;;;;;;;;;;;;;3.97;100.00;98011.88;4951848;28;20369;-87
2022/09/28 18:54:05;;;;;;;;;;;;;;;3.89;100.00;98017.47;4973059;28;19961;-86
2022/09/28 18:56:31;;;;;;;;;;;;;;;3.90;100.00;98013.09;4972226;28;20381;-87
2022/09/28 18:58:57;;;;;;;;;;;;;;;3.89;100.00;98014.00;4971163;28;19933;-88
2022/09/28 19:01:22;;;;;;;;;;;;;;;3.79;100.00;98019.63;4972920;28;20424;-87
2022/09/28 19:03:47;;;;;;;;;;;;;;;3.79;100.00;98022.25;4972338;28;20455;-88
2022/09/28 19:06:14;;;;;;;;;;;;;;;3.81;100.00;98016.94;4971872;28;20057;-87
2022/09/28 19:08:40;;;;;;;;;;;;;;;3.69;100.00;98020.97;4973533;28;20377;-87
2022/09/28 19:11:05;;;;;;;;;;;;;;;3.69;100.00;98023.59;4971855;28;20029;-87
2022/09/28 19:13:30;;;;;;;;;;;;;;;3.67;100.00;98033.28;4971205;28;20402;-87
2022/09/28 19:15:56;;;;;;;;;;;;;;;3.65;100.00;98029.84;4956072;28;20399;-88
2022/09/28 19:18:21;;;;;;;;;;;;;;;3.64;100.00;98033.41;4972587;28;19932;-87
2022/09/28 19:20:46;;;;;;;;;;;;;;;3.70;100.00;98041.03;4952996;28;20274;-87
2022/09/28 19:23:12;;;;;;;;;;;;;;;3.59;100.00;98036.22;4955073;28;19922;-89
2022/09/28 19:25:37;;;;;;;;;;;;;;;3.61;100.00;98041.41;4954139;28;19922;-87
2022/09/28 19:28:02;;;;;;;;;;;;;;;3.69;100.00;98031.44;4973162;28;19984;-87
2022/09/28 19:30:27;;;;;;;;;;;;;;;3.62;100.00;98037.84;4971908;28;19996;-86
2022/09/28 19:32:53;;;;;;;;;;;;;;;3.51;100.00;98037.44;4972470;28;20424;-86
2022/09/28 19:35:18;;;;;;;;;;;;;;;3.56;100.00;98041.59;4971041;28;19977;-87
2022/09/28 19:37:45;;;;;;;;;;;;;;;3.50;100.00;98041.00;4954769;28;19972;-87
2022/09/28 19:40:10;;;;;;;;;;;;;;;3.60;100.00;98042.31;4970301;28;19930;-88